Flight Track Log - Related Links

Times and Time Zones

All times are in EDT time to prevent confusion due to time zone crossing. See the AAL1592 flight status page for this flight to view local times or setup timezone preferences in your user account.


Time Position Orientation Groundspeed Altitude Reporting Facility
EDT Latitude Longitude Course Direction KTS MPH feet Rate Location/Type
Thu 01:38:32 PM 32.8293 -97.0284 358° North  Level FlightAware Approximate
Thu 01:39:07 PM 32.8725 -97.0303 152° Southeast 162 186 2,000  Level FAA TRACON SMA TRACON (SMA)
Thu 01:43:08 PM 32.6858 -96.9114 84° East 308 354 10,600 2,093 Climbing FAA TRACON SMA TRACON (SMA)
Thu 01:43:48 PM 32.6919 -96.8358 82° East 332 382 11,800 2,175 Climbing FAA TRACON SMA TRACON (SMA)
Thu 01:44:28 PM 32.7006 -96.7642 80° East 349 402 13,500 2,700 Climbing FAA TRACON SMA TRACON (SMA)
Thu 01:45:08 PM 32.7128 -96.6839 80° East 361 415 15,400 2,400 Climbing FAA TRACON SMA TRACON (SMA)
Thu 01:45:48 PM 32.7253 -96.6003 80° East 371 427 16,700 1,800 Climbing FAA TRACON SMA TRACON (SMA)
Thu 01:46:28 PM 32.7364 -96.5222 80° East 390 449 17,800 2,475 Climbing FAA TRACON SMA TRACON (SMA)
Thu 01:47:08 PM 32.7497 -96.4331 80° East 396 456 20,000 2,550 Climbing FAA TRACON SMA TRACON (SMA)
Thu 01:47:48 PM 32.7622 -96.3447 94° East 397 457 21,200 1,575 Climbing FAA TRACON SMA TRACON (SMA)
Thu 01:48:28 PM 32.7575 -96.2631 101° East 405 466 22,100 1,575 Climbing FAA TRACON SMA TRACON (SMA)
Thu 01:49:08 PM 32.7425 -96.1692 98° East 420 483 23,300 1,800 Climbing FAA TRACON SMA TRACON (SMA)
Thu 01:49:48 PM 32.7311 -96.0739 101° East 423 487 24,500 1,575 Climbing FAA TRACON SMA TRACON (SMA)
Thu 01:50:28 PM 32.7167 -95.9889 100° East 429 494 25,400 1,350 Climbing FAA TRACON SMA TRACON (SMA)
Thu 01:51:08 PM 32.7028 -95.8906 107° East 439 505 26,300 1,325 Climbing FAA TRACON SMA TRACON (SMA)
Thu 01:51:45 PM 32.6811 -95.8042 99° East 433 498 27,100 1,237 Climbing Fort Worth Center
Thu 01:52:45 PM 32.6603 -95.6564 86° East 445 512 28,300 1,200 Climbing Fort Worth Center
Thu 01:53:45 PM 32.6686 -95.5058 85° East 453 521 29,500 1,200 Climbing Fort Worth Center
Thu 01:54:45 PM 32.6789 -95.3525 87° East 458 527 30,700 1,100 Climbing Fort Worth Center
Thu 01:55:45 PM 32.6847 -95.2167 87° East 459 528 31,700 900 Climbing Fort Worth Center
Thu 01:56:45 PM 32.6925 -95.0608 85° East 459 528 32,500 750 Climbing Fort Worth Center
Thu 01:57:45 PM 32.7039 -94.9028 94° East 464 534 33,200 650 Climbing Fort Worth Center
Thu 01:58:45 PM 32.6944 -94.7450 111° Southeast 469 540 33,800 700 Climbing Fort Worth Center
Thu 01:59:45 PM 32.6453 -94.5958 113° Southeast 469 540 34,600 600 Climbing Fort Worth Center
Thu 02:00:45 PM 32.5939 -94.4494 112° Southeast 475 547 35,000 200 Climbing Fort Worth Center
Thu 02:01:45 PM 32.5444 -94.3033 112° Southeast 481 554 35,000  Level Fort Worth Center
Thu 02:02:45 PM 32.4928 -94.1550 112° Southeast 487 560 35,000  Level Fort Worth Center
Thu 02:03:45 PM 32.4431 -94.0089 112° Southeast 487 560 35,000  Level Fort Worth Center
Thu 02:04:45 PM 32.3931 -93.8608 113° Southeast 487 560 35,000  Level Fort Worth Center
Thu 02:07:02 PM 32.2778 -93.5333 113° Southeast 493 567 35,000  Level Houston Center
Thu 02:08:02 PM 32.2256 -93.3850 114° Southeast 482 555 35,000  Level Houston Center
Thu 02:09:02 PM 32.1708 -93.2394 112° Southeast 477 549 35,000  Level Houston Center
Thu 02:10:02 PM 32.1206 -93.0894 113° Southeast 482 555 35,000  Level Houston Center
Thu 02:11:02 PM 32.0678 -92.9442 113° Southeast 482 555 35,000  Level Houston Center
Thu 02:12:02 PM 32.0128 -92.7942 110° East 482 555 35,000  Level Houston Center
Thu 02:13:02 PM 31.9661 -92.6419 101° East 482 555 35,000  Level Houston Center
Thu 02:14:02 PM 31.9381 -92.4778 100° East 488 562 35,000 -50 Level Houston Center
Thu 02:15:02 PM 31.9139 -92.3211 102° East 494 568 34,900  Descending Houston Center
Thu 02:16:02 PM 31.8853 -92.1572 102° East 494 568 35,000 50 Climbing Houston Center
Thu 02:17:02 PM 31.8567 -91.9933 101° East 500 575 35,000  Level Houston Center
Thu 02:18:02 PM 31.8297 -91.8344 100° East 500 575 35,000  Level Houston Center
Thu 02:19:02 PM 31.8047 -91.6708 103° East 505 581 35,000  Level Houston Center
Thu 02:20:02 PM 31.7736 -91.5097 101° East 505 581 35,000  Level Houston Center
Thu 02:21:02 PM 31.7439 -91.3317 101° East 505 581 35,000  Level Houston Center
Thu 02:22:02 PM 31.7164 -91.1683 103° East 510 587 35,000  Level Houston Center
Thu 02:23:02 PM 31.6844 -91.0050 102° East 510 587 35,000  Level Houston Center
Thu 02:24:02 PM 31.6542 -90.8419 102° East 505 581 35,000  Level Houston Center
Thu 02:25:02 PM 31.6239 -90.6789 102° East 511 588 35,000  Level Houston Center
Thu 02:26:02 PM 31.5956 -90.5206 102° East 506 582 35,000  Level Houston Center
Thu 02:27:02 PM 31.5650 -90.3578 102° East 506 582 35,000 -50 Level Houston Center
Thu 02:28:02 PM 31.5361 -90.2000 102° East 506 582 34,900  Descending Houston Center
Thu 02:29:02 PM 31.5072 -90.0422 98° East 506 582 35,000 50 Climbing Houston Center
Thu 02:30:02 PM 31.4886 -89.8817 97° East 506 582 35,000  Level Houston Center
Thu 02:31:02 PM 31.4717 -89.7189 97° East 506 582 35,000  Level Houston Center
Thu 02:32:04 PM 31.4547 -89.5611 99° East 499 574 35,000  Level Houston Center
Thu 02:33:02 PM 31.4333 -89.4036 97° East 499 574 35,000  Level Houston Center
Thu 02:34:02 PM 31.4161 -89.2433 97° East 499 574 35,000  Level Houston Center
Thu 02:35:05 PM 31.3986 -89.0833 97° East 499 574 35,000  Level Houston Center
Thu 02:36:02 PM 31.3856 -88.9572 98° East 499 574 35,000  Level Houston Center
Thu 02:37:02 PM 31.3653 -88.7828 97° East 499 574 35,000  Level Houston Center
Thu 02:38:02 PM 31.3492 -88.6228 97° East 499 574 35,000  Level Houston Center
Thu 02:39:02 PM 31.3308 -88.4606 97° East 499 574 35,000  Level Houston Center
Thu 02:42:51 PM 31.2617 -87.8525 99° East 499 574 35,000  Level Jacksonville Center
Thu 02:43:51 PM 31.2408 -87.6911 98° East 499 574 35,000  Level Jacksonville Center
Thu 02:44:51 PM 31.2214 -87.5347 98° East 499 574 35,000  Level Jacksonville Center
Thu 02:45:51 PM 31.2022 -87.3736 98° East 499 574 35,000  Level Jacksonville Center
Thu 02:46:51 PM 31.1828 -87.2147 98° East 487 560 35,000  Level Jacksonville Center
Thu 02:47:51 PM 31.1631 -87.0536 101° East 487 560 35,000  Level Jacksonville Center
Thu 02:48:51 PM 31.1367 -86.8947 98° East 487 560 35,000  Level Jacksonville Center
Thu 02:49:51 PM 31.1186 -86.7361 99° East 487 560 35,000  Level Jacksonville Center
Thu 02:50:51 PM 31.0964 -86.5753 98° East 492 566 35,000  Level Jacksonville Center
Thu 02:51:51 PM 31.0758 -86.4119 99° East 498 573 35,000  Level Jacksonville Center
Thu 02:52:51 PM 31.0550 -86.2561 99° East 498 573 35,000  Level Jacksonville Center
Thu 02:53:51 PM 31.0322 -86.0856 99° East 498 573 35,000  Level Jacksonville Center
Thu 02:54:51 PM 31.0092 -85.9247 100° East 498 573 35,000  Level Jacksonville Center
Thu 02:55:51 PM 30.9858 -85.7664 99° East 498 573 35,000  Level Jacksonville Center
Thu 02:56:51 PM 30.9642 -85.6108 100° East 493 567 35,000  Level Jacksonville Center
Thu 02:57:51 PM 30.9403 -85.4478 99° East 493 567 35,000  Level Jacksonville Center
Thu 02:58:51 PM 30.9183 -85.2900 99° East 493 567 35,000  Level Jacksonville Center
Thu 02:59:51 PM 30.8961 -85.1319 98° East 493 567 35,000  Level Jacksonville Center
Thu 03:00:51 PM 30.8758 -84.9742 99° East 488 562 35,000  Level Jacksonville Center
Thu 03:01:51 PM 30.8533 -84.8139 101° East 488 562 35,000  Level Jacksonville Center
Thu 03:02:51 PM 30.8303 -84.6708 106° East 493 567 35,000  Level Jacksonville Center
Thu 03:03:51 PM 30.7889 -84.5008 118° Southeast 493 567 35,000  Level Jacksonville Center
Thu 03:04:51 PM 30.7319 -84.3742 114° Southeast 493 567 35,000  Level Jacksonville Center
Thu 03:05:51 PM 30.6750 -84.2233 114° Southeast 493 567 35,000  Level Jacksonville Center
Thu 03:06:51 PM 30.6181 -84.0753 114° Southeast 498 573 35,000 -500 Level Jacksonville Center
Thu 03:07:51 PM 30.5608 -83.9275 114° Southeast 498 573 34,000 -1,150 Descending Jacksonville Center
Thu 03:08:51 PM 30.5056 -83.7847 115° Southeast 498 573 32,700 -1,800 Descending Jacksonville Center
Thu 03:09:51 PM 30.4461 -83.6372 114° Southeast 498 573 30,400 -2,150 Descending Jacksonville Center
Thu 03:10:51 PM 30.3903 -83.4922 114° Southeast 498 573 28,400 -1,550 Descending Jacksonville Center
Thu 03:11:51 PM 30.3367 -83.3547 115° Southeast 482 555 27,300 -750 Descending Jacksonville Center
Thu 03:12:51 PM 30.2808 -83.2172 114° Southeast 471 542 26,900 -150 Descending Jacksonville Center
Thu 03:13:51 PM 30.2267 -83.0778 115° Southeast 466 536 27,000 -50 Climbing Jacksonville Center
Thu 03:14:51 PM 30.1725 -82.9431 115° Southeast 461 531 26,800 -650 Descending Jacksonville Center
Thu 03:15:51 PM 30.1183 -82.8086 115° Southeast 461 531 25,700 -900 Descending Jacksonville Center
Thu 03:16:51 PM 30.0597 -82.6644 115° Southeast 461 531 25,000 -350 Descending Jacksonville Center
Thu 03:17:51 PM 30.0072 -82.5328 130° Southeast 455 524 25,000  Level Jacksonville Center
Thu 03:18:51 PM 29.9317 -82.4275 166° South 433 498 25,000  Level Jacksonville Center
Thu 03:19:51 PM 29.8125 -82.3922 164° South 408 470 25,000 -450 Level Jacksonville Center
Thu 03:20:51 PM 29.6997 -82.3547 162° South 415 478 24,100 -600 Descending Jacksonville Center
Thu 03:21:51 PM 29.5847 -82.3122 163° South 426 490 23,800 -850 Descending Jacksonville Center
Thu 03:22:51 PM 29.4717 -82.2725 163° South 426 490 22,400 -1,500 Descending Jacksonville Center
Thu 03:23:51 PM 29.3672 -82.2350 163° South 415 478 20,800 -1,800 Descending Jacksonville Center
Thu 03:24:51 PM 29.2606 -82.1975 163° South 404 465 18,800 -2,050 Descending Jacksonville Center
Thu 03:25:51 PM 29.1581 -82.1625 162° South 399 459 16,700 -2,000 Descending Jacksonville Center
Thu 03:26:51 PM 29.0575 -82.1253 130° Southeast 394 453 14,800 -1,850 Descending Jacksonville Center
Thu 03:27:51 PM 28.9922 -82.0356 141° Southeast 355 409 13,000 -1,650 Descending Jacksonville Center
Thu 03:28:51 PM 28.9231 -81.9722 133° Southeast 355 409 11,500 -1,200 Descending Jacksonville Center
Thu 03:29:51 PM 28.8556 -81.8897 120° Southeast 355 409 10,600 -950 Descending Jacksonville Center
Thu 03:30:51 PM 28.8111 -81.8025 127° Southeast 338 389 9,600 -850 Descending Jacksonville Center
Thu 03:31:51 PM 28.7603 -81.7250 123° Southeast 317 365 8,900 -350 Descending Jacksonville Center
Thu 03:32:51 PM 28.7136 -81.6428 120° Southeast 309 356 8,900 64 Level Jacksonville Center
Thu 03:33:25 PM 28.6833 -81.5833 114° Southeast 307 353 9,000 64 Climbing Orlando TRACON
Thu 03:34:25 PM 28.6500 -81.5000 132° Southeast 308 354 9,000  Level Orlando TRACON
Thu 03:35:31 PM 28.5833 -81.4167 180° South 264 304 9,000 -95 Level Orlando TRACON
Thu 03:36:31 PM 28.5167 -81.4167 180° South 242 278 8,800 -992 Descending Orlando TRACON
Thu 03:37:32 PM 28.4500 -81.4167 180° South 236 272 7,000 -1,706 Descending Orlando TRACON
Thu 03:38:20 PM 28.4000 -81.4167 180° South 227 261 5,700 -1,333 Descending Orlando TRACON
Thu 03:39:38 PM 28.3333 -81.4167 180° South 197 227 4,200 -739 Descending Orlando TRACON
Thu 03:40:38 PM 28.2833 -81.4167 164° South 192 221 4,000 -529 Descending Orlando TRACON
Thu 03:41:20 PM 28.2333 -81.4000 90° East 188 216 3,300 -522 Descending Orlando TRACON
Thu 03:42:33 PM 28.2333 -81.3500 90° East 189 217 3,000 -247 Descending Orlando TRACON

Login

Don't have an account? Register now (free) for customized features, flight alerts, and more!